createdAt,value
2018-06-12T00:01:57.994Z,72.52
2018-06-12T00:04:27.193Z,73.23
2018-06-12T00:06:56.696Z,72.40
2018-06-12T00:09:25.857Z,72.55
2018-06-12T00:11:55.045Z,72.49
2018-06-12T00:14:24.237Z,72.45
2018-06-12T00:16:53.418Z,72.19
2018-06-12T00:19:22.589Z,72.39
2018-06-12T00:21:51.766Z,72.87
2018-06-12T00:24:20.949Z,72.76
2018-06-12T00:26:50.132Z,72.58
2018-06-12T00:29:19.307Z,72.67
2018-06-12T00:31:48.493Z,73.29
2018-06-12T00:34:17.676Z,73.32
2018-06-12T00:36:46.882Z,72.73
2018-06-12T00:39:16.058Z,73.17
2018-06-12T00:41:45.216Z,72.63
2018-06-12T00:44:14.340Z,73.07
2018-06-12T00:46:43.510Z,73.04
2018-06-12T00:49:12.828Z,72.95
2018-06-12T00:51:41.817Z,73.62
2018-06-12T00:54:10.716Z,73.75
2018-06-12T00:56:57.034Z,72.94
2018-06-12T00:59:26.230Z,73.23
2018-06-12T01:01:55.417Z,73.14
2018-06-12T01:04:24.597Z,72.85
2018-06-12T01:06:53.785Z,73.45
2018-06-12T01:09:22.957Z,73.10
2018-06-12T01:11:52.137Z,73.77
2018-06-12T01:14:21.397Z,73.51
2018-06-12T01:16:50.599Z,73.29
2018-06-12T01:19:19.776Z,73.02
2018-06-12T01:21:48.962Z,73.41
2018-06-12T01:24:18.129Z,73.38
2018-06-12T01:26:47.330Z,74.17
2018-06-12T01:29:17.258Z,73.29
2018-06-12T01:31:46.437Z,73.59
2018-06-12T01:34:15.605Z,72.88
2018-06-12T01:36:44.781Z,72.93
2018-06-12T01:39:13.953Z,73.25
2018-06-12T01:41:43.185Z,74.17
2018-06-12T01:44:12.381Z,74.37
2018-06-12T01:46:41.557Z,73.49
2018-06-12T01:49:10.723Z,73.89
2018-06-12T01:51:39.898Z,73.38
2018-06-12T01:54:09.074Z,72.74
2018-06-12T01:56:38.217Z,72.85
2018-06-12T01:59:07.341Z,73.59
2018-06-12T02:01:36.483Z,73.96
2018-06-12T02:04:05.638Z,73.39
2018-06-12T02:06:34.802Z,73.30
2018-06-12T02:09:04.665Z,73.01
2018-06-12T02:11:33.805Z,73.23
2018-06-12T02:14:02.929Z,73.42
2018-06-12T02:16:32.073Z,73.89
2018-06-12T02:19:01.201Z,72.85
2018-06-12T02:21:30.550Z,73.28
2018-06-12T02:23:59.677Z,73.48
2018-06-12T02:26:28.801Z,73.80
2018-06-12T02:28:57.945Z,73.53
2018-06-12T02:31:27.069Z,73.95
2018-06-12T02:33:56.254Z,74.08
2018-06-12T02:36:25.394Z,74.09
2018-06-12T02:38:54.837Z,74.11
2018-06-12T02:41:23.965Z,73.84
2018-06-12T02:43:53.085Z,74.01
2018-06-12T02:46:22.223Z,73.09
2018-06-12T02:48:51.367Z,73.39
2018-06-12T02:51:20.486Z,73.51
2018-06-12T02:53:49.649Z,72.48
2018-06-12T02:56:18.810Z,73.39
2018-06-12T02:58:47.921Z,73.14
2018-06-12T03:01:17.102Z,73.68
2018-06-12T03:03:46.233Z,73.70
2018-06-12T03:06:15.370Z,74.26
2018-06-12T03:08:44.488Z,73.69
2018-06-12T03:11:13.405Z,73.33
2018-06-12T03:13:42.529Z,73.90
2018-06-12T03:16:11.669Z,73.86
2018-06-12T03:18:40.814Z,74.14
2018-06-12T03:21:09.962Z,74.19
2018-06-12T03:23:39.117Z,73.92
2018-06-12T03:26:08.241Z,73.74
2018-06-12T03:28:37.562Z,73.09
2018-06-12T03:31:06.698Z,73.64
2018-06-12T03:33:35.821Z,73.37
2018-06-12T03:36:04.967Z,73.66
2018-06-12T03:38:34.098Z,73.34
2018-06-12T03:41:03.547Z,74.22
2018-06-12T03:43:32.680Z,73.26
2018-06-12T03:46:01.806Z,73.64
2018-06-12T03:48:30.949Z,73.67
2018-06-12T03:51:00.078Z,73.59
2018-06-12T03:53:29.201Z,73.23
2018-06-12T03:55:58.344Z,73.55
2018-06-12T03:58:27.476Z,73.77
2018-06-12T04:00:56.633Z,74.05
2018-06-12T04:03:25.769Z,74.29
2018-06-12T04:05:55.221Z,74.68
2018-06-12T04:08:24.432Z,74.97
2018-06-12T04:10:53.557Z,74.50
2018-06-12T04:13:22.708Z,74.20
2018-06-12T04:15:51.841Z,74.03
2018-06-12T04:18:20.990Z,73.75
2018-06-12T04:20:50.129Z,73.90
2018-06-12T04:23:19.261Z,74.56
2018-06-12T04:25:48.450Z,72.51
2018-06-12T04:28:17.641Z,72.44
2018-06-12T04:30:46.822Z,72.73
2018-06-12T04:33:15.995Z,73.45
2018-06-12T04:35:45.183Z,72.71
2018-06-12T04:38:14.348Z,73.49
2018-06-12T04:40:43.608Z,72.74
2018-06-12T04:43:12.776Z,73.52
2018-06-12T04:45:41.949Z,72.95
2018-06-12T04:48:11.201Z,73.38
2018-06-12T04:50:40.389Z,73.63
2018-06-12T04:53:09.573Z,73.08
2018-06-12T04:55:38.750Z,72.27
2018-06-12T04:58:07.688Z,72.97
2018-06-12T05:00:36.882Z,71.64
2018-06-12T05:03:06.070Z,72.67
2018-06-12T05:05:35.283Z,71.96
2018-06-12T05:08:04.451Z,72.45
2018-06-12T05:10:33.671Z,72.42
2018-06-12T05:13:02.832Z,72.21
2018-06-12T05:15:32.150Z,72.61
2018-06-12T05:18:01.281Z,72.33
2018-06-12T05:20:30.418Z,71.51
2018-06-12T05:22:59.598Z,71.03
2018-06-12T05:25:28.763Z,72.01
2018-06-12T05:27:57.901Z,72.10
2018-06-12T05:30:27.042Z,71.31
2018-06-12T05:32:56.173Z,70.58
2018-06-12T05:35:25.620Z,70.75
2018-06-12T05:37:54.751Z,70.92
2018-06-12T05:40:23.889Z,71.75
2018-06-12T05:42:53.047Z,73.04
2018-06-12T05:45:22.185Z,73.44
2018-06-12T05:47:51.325Z,72.45
2018-06-12T05:50:20.481Z,72.03
2018-06-12T05:52:49.605Z,71.32
2018-06-12T05:55:18.738Z,71.37
2018-06-12T05:57:47.942Z,71.13
2018-06-12T06:00:17.114Z,72.11
2018-06-12T06:02:46.289Z,72.87
2018-06-12T06:05:15.497Z,71.45
2018-06-12T06:07:51.252Z,71.10
2018-06-12T06:10:20.434Z,72.39
2018-06-12T06:12:49.612Z,72.18
2018-06-12T06:15:18.842Z,72.42
2018-06-12T06:17:48.029Z,71.05
2018-06-12T06:20:16.981Z,72.26
2018-06-12T06:22:46.208Z,72.62
2018-06-12T06:25:15.357Z,72.83
2018-06-12T06:27:44.525Z,72.31
2018-06-12T06:30:13.693Z,71.35
2018-06-12T06:32:42.935Z,72.37
2018-06-12T06:35:12.094Z,71.72
2018-06-12T06:37:41.277Z,71.88
2018-06-12T06:40:10.422Z,71.73
2018-06-12T06:42:39.565Z,72.07
2018-06-12T06:45:08.714Z,72.09
2018-06-12T06:47:37.865Z,70.20
2018-06-12T06:50:06.965Z,70.28
2018-06-12T06:52:36.171Z,71.34
2018-06-12T06:55:05.289Z,71.10
2018-06-12T06:57:34.418Z,71.99
2018-06-12T07:00:03.570Z,70.25
2018-06-12T07:02:32.709Z,70.69
2018-06-12T07:05:01.854Z,71.25
2018-06-12T07:07:30.987Z,71.17
2018-06-12T07:10:00.113Z,70.66
2018-06-12T07:12:29.266Z,71.32
2018-06-12T07:14:58.465Z,71.36
2018-06-12T07:17:27.561Z,71.08
2018-06-12T07:19:56.704Z,71.80
2018-06-12T07:22:25.833Z,71.31
2018-06-12T07:24:54.987Z,71.28
2018-06-12T07:27:24.117Z,69.99
2018-06-12T07:29:53.240Z,71.05
2018-06-12T07:32:22.418Z,69.91
2018-06-12T07:34:51.534Z,68.02
2018-06-12T07:37:20.669Z,67.36
2018-06-12T07:39:49.804Z,65.65
2018-06-12T07:42:18.941Z,65.32
2018-06-12T07:44:48.070Z,65.45
2018-06-12T07:47:17.405Z,64.77
2018-06-12T07:49:46.533Z,64.72
2018-06-12T07:52:15.659Z,65.81
2018-06-12T07:54:45.106Z,65.40
2018-06-12T07:57:14.302Z,66.62
2018-06-12T07:59:43.489Z,66.49
2018-06-12T08:02:12.717Z,65.82
2018-06-12T08:04:41.905Z,66.71
2018-06-12T08:07:11.093Z,65.40
2018-06-12T08:09:40.316Z,65.42
2018-06-12T08:12:09.473Z,65.03
2018-06-12T08:14:38.671Z,64.31
2018-06-12T08:17:07.862Z,64.40
2018-06-12T08:19:37.042Z,64.90
2018-06-12T08:22:06.206Z,67.08
2018-06-12T08:24:35.394Z,64.50
2018-06-12T08:27:04.577Z,64.92
2018-06-12T08:29:33.836Z,64.62
2018-06-12T08:32:03.006Z,63.90
2018-06-12T08:34:32.193Z,63.29
2018-06-12T08:37:01.367Z,64.57
2018-06-12T08:39:30.554Z,64.60
2018-06-12T08:41:59.718Z,65.27
2018-06-12T08:44:28.834Z,62.17
2018-06-12T08:46:57.977Z,61.73
2018-06-12T08:49:27.114Z,61.68
2018-06-12T08:51:56.241Z,63.05
2018-06-12T08:54:25.385Z,62.44
2018-06-12T08:56:54.534Z,63.16
2018-06-12T08:59:23.666Z,62.78
2018-06-12T09:01:52.803Z,62.98
2018-06-12T09:04:21.941Z,63.61
2018-06-12T09:06:51.089Z,62.87
2018-06-12T09:09:20.237Z,63.34
2018-06-12T09:11:49.377Z,65.68
2018-06-12T09:14:18.503Z,63.90
2018-06-12T09:16:47.645Z,63.51
2018-06-12T09:19:16.889Z,61.23
2018-06-12T09:21:46.099Z,61.96
2018-06-12T09:24:15.104Z,62.66
2018-06-12T09:26:44.326Z,61.82
2018-06-12T09:29:13.513Z,60.18
2018-06-12T09:31:42.706Z,60.76
2018-06-12T09:34:12.085Z,60.22
2018-06-12T09:36:41.034Z,59.81
2018-06-12T09:39:10.441Z,60.21
2018-06-12T09:41:39.629Z,59.64
2018-06-12T09:44:08.774Z,59.70
2018-06-12T09:46:37.911Z,59.71
2018-06-12T09:49:07.051Z,58.49
2018-06-12T09:51:36.176Z,59.87
2018-06-12T09:54:05.565Z,60.05
2018-06-12T09:56:34.696Z,58.61
2018-06-12T09:59:03.868Z,58.86
2018-06-12T10:01:33.014Z,57.52
2018-06-12T10:04:02.137Z,59.99
2018-06-12T10:06:31.286Z,60.21
2018-06-12T10:09:00.421Z,59.85
2018-06-12T10:11:29.853Z,60.44
2018-06-12T10:13:58.978Z,60.00
2018-06-12T10:16:28.105Z,59.94
2018-06-12T10:18:57.255Z,60.69
2018-06-12T10:21:26.506Z,61.00
2018-06-12T10:23:55.684Z,62.39
2018-06-12T10:26:24.853Z,60.00
2018-06-12T10:28:54.033Z,60.99
2018-06-12T10:31:23.736Z,61.10
2018-06-12T10:33:52.905Z,61.25
2018-06-12T10:36:22.093Z,61.09
2018-06-12T10:38:51.305Z,61.43
2018-06-12T10:41:20.482Z,61.18
2018-06-12T10:43:49.687Z,60.34
2018-06-12T10:46:18.865Z,60.62
2018-06-12T10:48:48.061Z,59.81
2018-06-12T10:51:17.225Z,60.95
2018-06-12T10:53:46.409Z,61.31
2018-06-12T10:56:15.345Z,60.34
2018-06-12T10:58:44.534Z,59.21
2018-06-12T11:01:13.918Z,59.63
2018-06-12T11:03:43.089Z,60.50
2018-06-12T11:06:12.269Z,61.00
2018-06-12T11:08:41.456Z,61.73
2018-06-12T11:11:10.620Z,61.79
2018-06-12T11:13:39.841Z,61.75
2018-06-12T11:16:09.034Z,62.79
2018-06-12T11:18:38.220Z,62.18
2018-06-12T11:21:07.429Z,61.35
2018-06-12T11:23:36.573Z,62.09
2018-06-12T11:26:05.773Z,61.43
2018-06-12T11:28:35.085Z,61.15
2018-06-12T11:31:04.205Z,62.89
2018-06-12T11:33:33.328Z,61.25
2018-06-12T11:36:02.477Z,62.02
2018-06-12T11:38:31.606Z,61.47
2018-06-12T11:41:00.737Z,60.67
2018-06-12T11:43:29.878Z,60.02
2018-06-12T11:45:59.002Z,60.09
2018-06-12T11:48:28.365Z,61.34
2018-06-12T11:50:57.508Z,58.60
2018-06-12T11:53:26.617Z,56.26
2018-06-12T11:55:55.782Z,56.98
2018-06-12T11:58:24.921Z,57.08
2018-06-12T12:00:54.060Z,52.93
2018-06-12T12:03:23.205Z,52.85
2018-06-12T12:05:52.349Z,55.45
2018-06-12T12:08:21.473Z,57.60
2018-06-12T12:10:50.606Z,52.93
2018-06-12T12:13:19.735Z,52.51
2018-06-12T12:15:48.880Z,54.67
2018-06-12T12:18:18.006Z,53.75
2018-06-12T12:20:47.201Z,55.59
2018-06-12T12:23:16.315Z,54.94
2018-06-12T12:25:45.461Z,54.22
2018-06-12T12:28:14.600Z,53.77
2018-06-12T12:30:43.593Z,55.56
2018-06-12T12:33:12.777Z,56.90
2018-06-12T12:35:41.985Z,57.01
2018-06-12T12:38:11.158Z,56.84
2018-06-12T12:40:40.329Z,58.19
2018-06-12T12:43:09.566Z,57.24
2018-06-12T12:45:38.741Z,57.99
2018-06-12T12:48:07.919Z,56.58
2018-06-12T12:50:37.099Z,56.72
2018-06-12T12:53:06.540Z,57.40
2018-06-12T12:55:35.480Z,56.39
2018-06-12T12:58:04.682Z,55.73
2018-06-12T13:00:33.870Z,56.92
2018-06-12T13:03:03.066Z,56.67
2018-06-12T13:05:32.564Z,58.07
2018-06-12T13:08:01.753Z,56.15
2018-06-12T13:10:30.927Z,56.31
2018-06-12T13:13:00.226Z,56.75
2018-06-12T13:15:29.410Z,56.26
2018-06-12T13:17:58.601Z,55.34
2018-06-12T13:20:27.787Z,54.57
2018-06-12T13:22:56.990Z,55.11
2018-06-12T13:25:26.170Z,54.86
2018-06-12T13:27:55.374Z,54.55
2018-06-12T13:30:24.567Z,56.13
2018-06-12T13:32:53.742Z,55.63
2018-06-12T13:35:22.937Z,54.24
2018-06-12T13:37:52.105Z,56.08
2018-06-12T13:40:21.300Z,54.89
2018-06-12T13:42:50.475Z,52.25
2018-06-12T13:45:19.636Z,52.14
2018-06-12T13:47:48.778Z,54.22
2018-06-12T13:50:17.913Z,54.43
2018-06-12T13:52:47.037Z,53.07
2018-06-12T13:55:16.186Z,54.30
2018-06-12T13:57:45.304Z,55.84
2018-06-12T14:00:14.450Z,55.03
2018-06-12T14:02:43.581Z,56.11
2018-06-12T14:05:12.730Z,56.14
2018-06-12T14:07:41.876Z,57.35
2018-06-12T14:10:11.009Z,55.82
2018-06-12T14:12:40.130Z,56.45
2018-06-12T14:15:09.278Z,56.40
2018-06-12T14:17:38.406Z,55.50
2018-06-12T14:20:07.564Z,56.71
2018-06-12T14:22:36.682Z,57.52
2018-06-12T14:25:05.833Z,59.30
2018-06-12T14:27:35.015Z,62.14
2018-06-12T14:30:04.193Z,63.90
2018-06-12T14:32:33.478Z,65.44
2018-06-12T14:35:02.683Z,66.21
2018-06-12T14:37:31.818Z,67.89
2018-06-12T14:40:00.957Z,69.58
2018-06-12T14:42:30.101Z,69.41
2018-06-12T14:44:59.253Z,72.28
2018-06-12T14:47:28.389Z,72.43
2018-06-12T14:49:57.532Z,73.49
2018-06-12T14:52:26.657Z,72.96
2018-06-12T14:54:55.829Z,73.79
2018-06-12T14:57:25.889Z,72.82
2018-06-12T14:59:55.019Z,74.69
2018-06-12T15:02:24.140Z,74.03
2018-06-12T15:04:53.293Z,74.90
2018-06-12T15:07:22.412Z,74.80
2018-06-12T15:09:51.558Z,75.33
2018-06-12T15:12:20.692Z,75.98
2018-06-12T15:14:49.828Z,75.87
2018-06-12T15:17:19.010Z,75.72
2018-06-12T15:19:48.169Z,76.01
2018-06-12T15:22:17.293Z,75.69
2018-06-12T15:24:46.440Z,75.64
2018-06-12T15:27:15.594Z,76.04
2018-06-12T15:29:44.870Z,74.59
2018-06-12T15:32:14.213Z,75.45
2018-06-12T15:34:43.353Z,76.88
2018-06-12T15:37:12.494Z,76.95
2018-06-12T15:39:41.665Z,74.43
2018-06-12T15:42:10.781Z,73.42
2018-06-12T15:44:39.962Z,75.46
2018-06-12T15:47:09.049Z,75.80
2018-06-12T15:49:38.194Z,76.07
2018-06-12T15:52:07.350Z,76.90
2018-06-12T15:54:36.484Z,78.43
2018-06-12T15:57:05.650Z,78.43
2018-06-12T15:59:34.789Z,77.61
2018-06-12T16:02:04.073Z,78.10
2018-06-12T16:04:33.237Z,78.23
2018-06-12T16:07:02.384Z,78.30
2018-06-12T16:09:31.537Z,77.99
2018-06-12T16:12:00.695Z,78.80
2018-06-12T16:14:29.814Z,78.85
2018-06-12T16:16:58.962Z,76.55
2018-06-12T16:19:27.940Z,77.86
2018-06-12T16:21:57.066Z,77.30
2018-06-12T16:24:26.225Z,78.22
2018-06-12T16:26:55.140Z,78.29
2018-06-12T16:29:24.533Z,75.81
2018-06-12T16:31:53.441Z,76.38
2018-06-12T16:34:22.582Z,77.38
2018-06-12T16:36:51.725Z,77.25
2018-06-12T16:39:20.964Z,77.30
2018-06-12T16:41:50.212Z,76.31
2018-06-12T16:44:19.361Z,76.01
2018-06-12T16:46:48.514Z,75.77
2018-06-12T16:49:17.645Z,76.66
2018-06-12T16:51:46.783Z,77.03
2018-06-12T16:54:15.925Z,77.06
2018-06-12T16:56:45.129Z,78.24
2018-06-12T16:59:14.206Z,78.02
2018-06-12T17:01:43.358Z,77.53
2018-06-12T17:04:12.481Z,78.03
2018-06-12T17:06:41.609Z,78.93
2018-06-12T17:09:10.766Z,79.86
2018-06-12T17:11:39.926Z,79.53
2018-06-12T17:14:09.045Z,79.19
2018-06-12T17:16:38.206Z,80.04
2018-06-12T17:19:07.365Z,79.80
2018-06-12T17:21:36.494Z,79.95
2018-06-12T17:24:05.616Z,80.58
2018-06-12T17:26:34.760Z,80.23
2018-06-12T17:29:03.895Z,80.70
2018-06-12T17:31:33.031Z,81.48
2018-06-12T17:34:02.162Z,80.42
2018-06-12T17:36:31.319Z,81.27
2018-06-12T17:39:00.431Z,80.68
2018-06-12T17:41:29.578Z,81.05
2018-06-12T17:43:58.701Z,80.27
2018-06-12T17:46:27.848Z,80.33
2018-06-12T17:48:56.985Z,78.82
2018-06-12T17:51:26.131Z,76.79
2018-06-12T17:53:55.512Z,76.67
2018-06-12T17:56:24.637Z,77.30
2018-06-12T17:58:53.781Z,77.68
2018-06-12T18:01:22.941Z,78.10
2018-06-12T18:03:52.070Z,78.13
2018-06-12T18:06:21.261Z,78.32
2018-06-12T18:08:50.441Z,78.16
2018-06-12T18:11:19.724Z,78.78
2018-06-12T18:13:48.913Z,78.56
2018-06-12T18:16:18.088Z,78.98
2018-06-12T18:18:47.257Z,79.15
2018-06-12T18:21:16.429Z,79.19
2018-06-12T18:23:45.609Z,78.92
2018-06-12T18:26:14.793Z,80.32
2018-06-12T18:28:43.976Z,79.50
2018-06-12T18:31:13.164Z,80.23
2018-06-12T18:33:42.332Z,79.70
2018-06-12T18:36:11.876Z,78.76
2018-06-12T18:38:41.042Z,79.78
2018-06-12T18:41:10.244Z,79.97
2018-06-12T18:43:39.489Z,79.58
2018-06-12T18:46:08.808Z,79.63
2018-06-12T18:48:37.998Z,78.56
2018-06-12T18:51:07.202Z,78.99
2018-06-12T18:53:36.390Z,79.14
2018-06-12T18:56:05.586Z,77.11
2018-06-12T18:58:34.766Z,77.16
2018-06-12T19:01:03.937Z,77.05
2018-06-12T19:03:33.130Z,77.00
2018-06-12T19:06:02.383Z,77.24
2018-06-12T19:08:31.542Z,78.40
2018-06-12T19:11:00.846Z,77.97
2018-06-12T19:13:30.035Z,77.42
2018-06-12T19:15:59.866Z,77.79
2018-06-12T19:18:29.073Z,77.85
2018-06-12T19:20:58.619Z,78.45
2018-06-12T19:23:28.257Z,77.71
2018-06-12T19:25:57.191Z,77.95
2018-06-12T19:28:26.405Z,78.13
2018-06-12T19:30:55.602Z,78.12
2018-06-12T19:33:24.760Z,77.39
2018-06-12T19:35:53.933Z,77.59
2018-06-12T19:38:23.108Z,77.42
2018-06-12T19:40:52.289Z,78.70
2018-06-12T19:43:21.504Z,78.26
2018-06-12T19:45:50.671Z,78.45
2018-06-12T19:48:19.845Z,78.72
2018-06-12T19:50:49.029Z,78.89
2018-06-12T19:53:18.213Z,78.09
2018-06-12T19:55:47.390Z,79.05
2018-06-12T19:58:16.601Z,78.83
2018-06-12T20:00:45.786Z,79.42
2018-06-12T20:03:14.977Z,79.04
2018-06-12T20:05:44.141Z,79.60
2018-06-12T20:08:13.362Z,78.77
2018-06-12T20:10:42.729Z,78.08
2018-06-12T20:13:11.943Z,79.48
2018-06-12T20:15:41.081Z,79.34
2018-06-12T20:18:10.257Z,79.57
2018-06-12T20:20:39.594Z,79.84
2018-06-12T20:23:08.773Z,79.14
2018-06-12T20:25:38.123Z,78.83
2018-06-12T20:28:07.292Z,78.82
2018-06-12T20:30:36.514Z,78.74
2018-06-12T20:33:05.784Z,78.30
2018-06-12T20:35:34.950Z,78.61
2018-06-12T20:38:04.138Z,77.98
2018-06-12T20:40:33.302Z,77.41
2018-06-12T20:43:02.481Z,78.00
2018-06-12T20:45:31.657Z,78.18
2018-06-12T20:48:00.873Z,77.92
2018-06-12T20:50:30.012Z,78.16
2018-06-12T20:52:59.396Z,77.97
2018-06-12T20:55:28.614Z,78.12
2018-06-12T20:57:57.728Z,78.68
2018-06-12T21:00:26.869Z,78.37
2018-06-12T21:02:55.872Z,77.81
2018-06-12T21:05:24.989Z,78.36
2018-06-12T21:07:54.133Z,78.85
2018-06-12T21:10:23.258Z,78.29
2018-06-12T21:12:52.169Z,78.91
2018-06-12T21:15:21.333Z,78.35
2018-06-12T21:17:50.528Z,78.38
2018-06-12T21:20:19.708Z,78.95
2018-06-12T21:22:48.894Z,80.00
2018-06-12T21:25:18.096Z,79.61
2018-06-12T21:27:47.272Z,80.05
2018-06-12T21:30:16.453Z,80.18
2018-06-12T21:32:45.636Z,80.09
2018-06-12T21:35:14.864Z,80.24
2018-06-12T21:37:44.237Z,79.95
2018-06-12T21:40:13.370Z,80.98
2018-06-12T21:42:42.538Z,79.98
2018-06-12T21:45:11.721Z,80.93
2018-06-12T21:47:40.928Z,79.84
2018-06-12T21:50:10.517Z,79.95
2018-06-12T21:52:39.673Z,79.68
2018-06-12T21:55:08.845Z,80.33
2018-06-12T21:57:38.050Z,79.70
2018-06-12T22:00:08.305Z,80.18
2018-06-12T22:02:37.473Z,80.88
2018-06-12T22:05:06.655Z,80.29
2018-06-12T22:07:35.867Z,80.61
2018-06-12T22:10:05.185Z,80.37
2018-06-12T22:12:34.387Z,79.99
2018-06-12T22:15:03.571Z,80.56
2018-06-12T22:17:32.738Z,80.72
2018-06-12T22:20:01.889Z,80.64
2018-06-12T22:22:31.026Z,80.09
2018-06-12T22:25:00.177Z,80.12
2018-06-12T22:27:29.325Z,80.66
2018-06-12T22:29:58.474Z,80.42
2018-06-12T22:32:27.622Z,80.61
2018-06-12T22:34:56.770Z,80.61
2018-06-12T22:37:25.906Z,80.54
2018-06-12T22:39:54.893Z,80.51
2018-06-12T22:42:24.018Z,80.57
2018-06-12T22:44:53.138Z,80.84
2018-06-12T22:47:22.299Z,80.73
2018-06-12T22:49:51.197Z,81.00
2018-06-12T22:52:20.344Z,81.26
2018-06-12T22:54:49.481Z,81.02
2018-06-12T22:57:18.619Z,80.67
2018-06-12T22:59:47.753Z,80.20
2018-06-12T23:02:16.877Z,81.10
2018-06-12T23:04:46.258Z,80.25
2018-06-12T23:07:15.395Z,80.80
2018-06-12T23:09:44.654Z,81.36
2018-06-12T23:12:13.962Z,80.82
2018-06-12T23:14:43.101Z,80.80
2018-06-12T23:17:12.226Z,80.92
2018-06-12T23:19:58.533Z,80.54
2018-06-12T23:22:27.660Z,80.47
2018-06-12T23:24:56.802Z,80.83
2018-06-12T23:27:25.957Z,80.01
2018-06-12T23:29:55.085Z,80.00
2018-06-12T23:32:24.222Z,79.90
2018-06-12T23:34:53.350Z,80.65
2018-06-12T23:37:22.502Z,79.81
2018-06-12T23:39:51.660Z,80.38
2018-06-12T23:42:20.780Z,80.73
2018-06-12T23:44:49.925Z,80.04
2018-06-12T23:47:19.089Z,80.94
2018-06-12T23:49:48.221Z,80.95
2018-06-12T23:52:17.613Z,81.23
2018-06-12T23:54:46.792Z,80.55
2018-06-12T23:57:15.974Z,80.50
2018-06-12T23:59:45.169Z,80.53
